createdAt,value
2023-01-03T00:01:23.011Z,2.47
2023-01-03T00:03:51.741Z,3.40
2023-01-03T00:06:21.974Z,5.07
2023-01-03T00:08:50.599Z,3.05
2023-01-03T00:11:20.255Z,3.00
2023-01-03T00:13:47.608Z,2.45
2023-01-03T00:16:16.884Z,3.72
2023-01-03T00:18:45.470Z,2.10
2023-01-03T00:21:13.856Z,4.40
2023-01-03T00:23:43.506Z,2.47
2023-01-03T00:26:12.678Z,2.60
2023-01-03T00:28:41.180Z,2.90
2023-01-03T00:31:10.043Z,2.90
2023-01-03T00:33:38.452Z,2.28
2023-01-03T00:36:07.446Z,2.30
2023-01-03T00:38:36.211Z,5.55
2023-01-03T00:41:09.587Z,2.47
2023-01-03T00:43:38.299Z,3.90
2023-01-03T00:46:07.277Z,3.85
2023-01-03T00:48:36.065Z,2.58
2023-01-03T00:51:07.579Z,2.47
2023-01-03T00:53:36.410Z,4.25
2023-01-03T00:56:05.633Z,2.80
2023-01-03T00:58:35.478Z,2.72
2023-01-03T01:01:06.504Z,3.45
2023-01-03T01:03:35.363Z,2.78
2023-01-03T01:06:12.304Z,4.45
2023-01-03T01:08:40.647Z,3.47
2023-01-03T01:11:09.060Z,2.88
2023-01-03T01:13:38.946Z,3.83
2023-01-03T01:16:08.976Z,4.30
2023-01-03T01:18:37.825Z,3.28
2023-01-03T01:21:07.204Z,4.15
2023-01-03T01:23:37.139Z,3.42
2023-01-03T01:26:06.049Z,3.45
2023-01-03T01:28:35.747Z,3.33
2023-01-03T01:31:06.674Z,3.60
2023-01-03T01:33:36.248Z,4.10
2023-01-03T01:36:07.216Z,3.95
2023-01-03T01:38:35.698Z,4.38
2023-01-03T01:41:04.242Z,6.03
2023-01-03T01:43:50.462Z,3.88
2023-01-03T01:46:22.619Z,4.15
2023-01-03T01:48:52.888Z,4.35
2023-01-03T01:51:22.696Z,4.63
2023-01-03T01:53:51.747Z,8.02
2023-01-03T01:56:21.251Z,4.78
2023-01-03T01:58:50.834Z,4.00
2023-01-03T02:01:22.688Z,7.15
2023-01-03T02:03:55.409Z,4.35
2023-01-03T02:06:24.709Z,3.85
2023-01-03T02:08:53.195Z,4.90
2023-01-03T02:11:27.879Z,4.63
2023-01-03T02:14:00.966Z,4.50
2023-01-03T02:16:37.371Z,4.50
2023-01-03T02:19:13.226Z,4.30
2023-01-03T02:21:54.158Z,5.13
2023-01-03T02:24:50.719Z,4.78
2023-01-03T02:27:30.909Z,5.40
2023-01-03T02:30:29.921Z,6.30
2023-01-03T02:33:05.101Z,3.72
2023-01-03T02:35:38.381Z,4.55
2023-01-03T02:38:12.749Z,6.18
2023-01-03T02:40:43.191Z,5.30
2023-01-03T02:43:14.952Z,4.13
2023-01-03T02:45:54.097Z,6.85
2023-01-03T02:48:26.885Z,4.38
2023-01-03T02:50:56.847Z,5.40
2023-01-03T02:53:28.558Z,4.82
2023-01-03T02:55:58.452Z,5.40
2023-01-03T02:58:28.452Z,11.32
2023-01-03T03:01:00.303Z,6.03
2023-01-03T03:03:30.476Z,6.50
2023-01-03T03:06:04.535Z,5.63
2023-01-03T03:08:32.901Z,7.72
2023-01-03T03:11:19.210Z,7.40
2023-01-03T03:13:49.491Z,6.15
2023-01-03T03:16:40.888Z,6.72
2023-01-03T03:19:35.529Z,5.65
2023-01-03T03:22:23.413Z,8.68
2023-01-03T03:24:51.875Z,6.30
2023-01-03T03:27:40.872Z,6.65
2023-01-03T03:30:12.080Z,6.60
2023-01-03T03:32:43.234Z,5.38
2023-01-03T03:35:13.622Z,6.40
2023-01-03T03:37:42.788Z,6.22
2023-01-03T03:40:29.924Z,6.40
2023-01-03T03:43:17.222Z,6.07
2023-01-03T03:45:48.162Z,7.18
2023-01-03T03:48:19.849Z,6.13
2023-01-03T03:50:51.035Z,7.75
2023-01-03T03:53:20.872Z,8.23
2023-01-03T03:55:51.676Z,7.68
2023-01-03T03:58:22.549Z,7.53
2023-01-03T04:00:52.791Z,7.28
2023-01-03T04:03:23.895Z,8.73
2023-01-03T04:05:55.026Z,7.75
2023-01-03T04:08:23.693Z,6.85
2023-01-03T04:10:52.437Z,8.13
2023-01-03T04:13:20.800Z,9.77
2023-01-03T04:15:49.064Z,6.65
2023-01-03T04:18:17.473Z,8.85
2023-01-03T04:20:47.245Z,8.35
2023-01-03T04:23:15.657Z,7.38
2023-01-03T04:25:44.155Z,7.57
2023-01-03T04:28:12.476Z,7.30
2023-01-03T04:30:40.795Z,8.57
2023-01-03T04:33:09.104Z,9.63
2023-01-03T04:35:38.247Z,9.57
2023-01-03T04:38:08.279Z,11.20
2023-01-03T04:40:38.520Z,8.63
2023-01-03T04:43:24.786Z,8.63
2023-01-03T04:45:53.382Z,8.77
2023-01-03T04:48:21.772Z,9.95
2023-01-03T04:50:53.361Z,10.82
2023-01-03T04:53:23.157Z,11.15
2023-01-03T04:55:52.402Z,10.20
2023-01-03T04:58:21.536Z,14.05
2023-01-03T05:00:49.902Z,12.98
2023-01-03T05:03:24.029Z,10.43
2023-01-03T05:05:59.928Z,12.23
2023-01-03T05:08:29.601Z,12.18
2023-01-03T05:10:58.167Z,12.77
2023-01-03T05:13:26.679Z,12.82
2023-01-03T05:15:55.034Z,16.05
2023-01-03T05:18:23.404Z,13.63
2023-01-03T05:21:09.325Z,13.60
2023-01-03T05:23:56.860Z,11.90
2023-01-03T05:26:25.240Z,15.23
2023-01-03T05:28:55.251Z,14.57
2023-01-03T05:31:23.596Z,17.05
2023-01-03T05:33:52.054Z,18.42
2023-01-03T05:36:20.444Z,17.23
2023-01-03T05:38:50.260Z,15.27
2023-01-03T05:41:39.702Z,12.35
2023-01-03T05:44:08.272Z,12.82
2023-01-03T05:46:36.753Z,16.48
2023-01-03T05:49:05.177Z,15.85
2023-01-03T05:51:33.478Z,18.25
2023-01-03T05:54:03.259Z,14.27
2023-01-03T05:56:32.399Z,14.10
2023-01-03T05:59:00.763Z,17.73
2023-01-03T06:01:29.550Z,17.55
2023-01-03T06:03:58.127Z,17.13
2023-01-03T06:06:26.539Z,15.15
2023-01-03T06:08:55.570Z,17.70
2023-01-03T06:11:25.215Z,14.13
2023-01-03T06:13:53.648Z,18.25
2023-01-03T06:16:40.319Z,18.77
2023-01-03T06:19:09.630Z,14.82
2023-01-03T06:21:38.255Z,13.18
2023-01-03T06:24:07.412Z,16.75
2023-01-03T06:26:38.202Z,15.68
2023-01-03T06:29:12.482Z,17.48
2023-01-03T06:31:41.695Z,20.33
2023-01-03T06:34:10.059Z,14.80
2023-01-03T06:36:39.779Z,15.13
2023-01-03T06:39:08.757Z,15.35
2023-01-03T06:41:38.754Z,15.23
2023-01-03T06:44:07.632Z,16.25
2023-01-03T06:46:53.381Z,15.10
2023-01-03T06:49:39.828Z,15.63
2023-01-03T06:52:30.644Z,17.35
2023-01-03T06:54:59.463Z,16.20
2023-01-03T06:57:29.427Z,16.60
2023-01-03T06:59:57.777Z,16.20
2023-01-03T07:02:26.648Z,16.48
2023-01-03T07:04:55.202Z,15.13
2023-01-03T07:07:23.606Z,17.33
2023-01-03T07:09:51.935Z,16.90
2023-01-03T07:12:38.555Z,19.95
2023-01-03T07:15:09.184Z,21.55
2023-01-03T07:17:37.714Z,17.15
2023-01-03T07:20:06.948Z,18.50
2023-01-03T07:22:35.385Z,14.73
2023-01-03T07:25:03.700Z,16.50
2023-01-03T07:27:32.261Z,16.48
2023-01-03T07:30:00.748Z,16.70
2023-01-03T07:32:30.491Z,16.77
2023-01-03T07:35:07.079Z,17.15
2023-01-03T07:37:38.687Z,19.55
2023-01-03T07:40:11.877Z,17.30
2023-01-03T07:43:17.371Z,16.75
2023-01-03T07:46:24.293Z,19.38
2023-01-03T07:49:12.141Z,19.70
2023-01-03T07:52:25.521Z,15.30
2023-01-03T07:55:24.370Z,15.80
2023-01-03T07:58:10.553Z,14.98
2023-01-03T08:00:57.701Z,14.48
2023-01-03T08:09:48.667Z,21.60
2023-01-03T08:12:58.475Z,23.33
2023-01-03T08:15:38.032Z,16.85
2023-01-03T08:27:11.774Z,16.45
2023-01-03T08:29:50.126Z,19.92
2023-01-03T08:32:34.719Z,17.83
2023-01-03T08:43:01.522Z,16.15
2023-01-03T08:45:44.143Z,18.80
2023-01-03T08:48:51.057Z,17.15
2023-01-03T08:51:31.554Z,20.38
2023-01-03T08:57:40.272Z,18.80
2023-01-03T09:07:00.937Z,22.20
2023-01-03T09:12:35.979Z,15.68
2023-01-03T09:15:07.202Z,16.05
2023-01-03T09:17:45.500Z,15.18
2023-01-03T09:20:21.057Z,13.77
2023-01-03T09:22:50.746Z,13.95
2023-01-03T09:25:33.359Z,14.18
2023-01-03T09:28:05.731Z,15.48
2023-01-03T09:30:37.502Z,16.05
2023-01-03T09:33:10.662Z,15.00
2023-01-03T09:35:44.935Z,15.35
2023-01-03T09:38:18.989Z,13.27
2023-01-03T09:40:50.624Z,16.13
2023-01-03T09:43:25.264Z,14.45
2023-01-03T09:45:58.204Z,15.07
2023-01-03T09:48:34.605Z,17.00
2023-01-03T09:51:29.810Z,11.63
2023-01-03T09:54:17.361Z,11.13
2023-01-03T09:57:05.736Z,16.95
2023-01-03T09:59:53.381Z,12.95
2023-01-03T10:02:50.734Z,14.60
2023-01-03T10:06:18.503Z,13.50
2023-01-03T10:09:08.602Z,12.30
2023-01-03T10:11:45.512Z,12.75
2023-01-03T10:14:25.777Z,9.30
2023-01-03T10:16:59.717Z,10.27
2023-01-03T10:19:46.386Z,7.63
2023-01-03T10:22:15.841Z,9.70
2023-01-03T10:24:47.415Z,6.55
2023-01-03T10:27:18.062Z,6.55
2023-01-03T10:29:46.931Z,9.35
2023-01-03T10:32:33.649Z,8.30
2023-01-03T10:35:03.928Z,7.85
2023-01-03T10:37:32.334Z,9.43
2023-01-03T10:40:05.906Z,11.27
2023-01-03T10:42:41.907Z,7.22
2023-01-03T10:49:28.262Z,8.80
2023-01-03T10:52:26.678Z,8.80
2023-01-03T10:54:56.478Z,12.50
2023-01-03T10:57:43.694Z,10.00
2023-01-03T11:00:32.041Z,8.45
2023-01-03T11:03:21.770Z,9.75
2023-01-03T11:06:14.906Z,8.00
2023-01-03T11:08:53.550Z,6.13
2023-01-03T11:11:30.800Z,8.10
2023-01-03T11:14:17.431Z,11.88
2023-01-03T11:16:50.275Z,8.13
2023-01-03T11:19:19.645Z,8.73
2023-01-03T11:21:54.185Z,6.55
2023-01-03T11:24:30.021Z,8.80
2023-01-03T11:27:04.507Z,6.40
2023-01-03T11:29:55.126Z,10.15
2023-01-03T11:32:35.270Z,6.55
2023-01-03T11:35:23.430Z,7.45
2023-01-03T11:38:25.886Z,5.72
2023-01-03T11:43:57.941Z,9.10
2023-01-03T11:46:35.217Z,6.22
2023-01-03T11:49:20.478Z,5.93
2023-01-03T11:51:54.223Z,4.90
2023-01-03T11:54:33.967Z,9.48
2023-01-03T11:57:07.718Z,6.18
2023-01-03T11:59:48.072Z,6.15
2023-01-03T12:02:26.750Z,5.95
2023-01-03T12:05:02.137Z,7.90
2023-01-03T12:07:47.630Z,5.63
2023-01-03T12:10:18.350Z,8.48
2023-01-03T12:13:03.352Z,8.02
2023-01-03T12:15:37.306Z,6.60
2023-01-03T12:18:08.871Z,6.03
2023-01-03T12:20:40.319Z,6.72
2023-01-03T12:23:15.681Z,6.80
2023-01-03T12:25:45.067Z,5.80
2023-01-03T12:28:16.726Z,7.20
2023-01-03T12:30:48.285Z,7.38
2023-01-03T12:33:23.900Z,6.03
2023-01-03T12:35:58.364Z,5.82
2023-01-03T12:38:28.638Z,10.32
2023-01-03T12:40:58.505Z,5.50
2023-01-03T12:43:30.312Z,6.40
2023-01-03T12:46:06.988Z,5.18
2023-01-03T12:48:43.821Z,5.82
2023-01-03T12:51:14.679Z,7.72
2023-01-03T12:53:46.969Z,5.30
2023-01-03T12:56:25.026Z,6.38
2023-01-03T12:59:00.230Z,6.35
2023-01-03T13:01:30.267Z,7.38
2023-01-03T13:04:01.004Z,5.47
2023-01-03T13:06:32.990Z,6.30
2023-01-03T13:09:04.225Z,7.05
2023-01-03T13:11:34.243Z,6.25
2023-01-03T13:14:06.324Z,4.50
2023-01-03T13:16:43.551Z,5.82
2023-01-03T13:19:31.843Z,6.55
2023-01-03T13:22:05.680Z,5.53
2023-01-03T13:24:44.492Z,9.32
2023-01-03T13:27:23.504Z,4.97
2023-01-03T13:29:58.299Z,5.13
2023-01-03T13:32:32.933Z,6.50
2023-01-03T13:35:20.653Z,4.70
2023-01-03T13:37:51.366Z,6.68
2023-01-03T13:40:39.361Z,4.18
2023-01-03T13:43:16.760Z,5.30
2023-01-03T13:45:54.055Z,8.10
2023-01-03T13:48:31.159Z,7.78
2023-01-03T13:51:07.654Z,4.25
2023-01-03T13:53:40.916Z,3.97
2023-01-03T13:56:23.176Z,5.85
2023-01-03T13:58:53.273Z,6.80
2023-01-03T14:01:27.834Z,7.03
2023-01-03T14:04:08.682Z,5.35
2023-01-03T14:06:50.695Z,5.38
2023-01-03T14:09:29.777Z,5.45
2023-01-03T14:12:11.588Z,6.90
2023-01-03T14:14:41.355Z,5.75
2023-01-03T14:17:17.348Z,5.20
2023-01-03T14:19:50.790Z,6.63
2023-01-03T14:22:30.126Z,7.45
2023-01-03T14:25:01.584Z,6.88
2023-01-03T14:27:33.272Z,6.10
2023-01-03T14:30:02.044Z,12.80
2023-01-03T14:32:34.587Z,4.80
2023-01-03T14:35:04.137Z,9.02
2023-01-03T14:37:34.864Z,6.65
2023-01-03T14:40:06.096Z,5.47
2023-01-03T14:42:34.621Z,5.63
2023-01-03T14:45:03.743Z,6.60
2023-01-03T14:47:34.987Z,4.85
2023-01-03T14:50:04.092Z,6.35
2023-01-03T14:52:34.820Z,5.07
2023-01-03T14:55:06.155Z,6.22
2023-01-03T14:57:38.808Z,4.15
2023-01-03T15:00:08.560Z,4.40
2023-01-03T15:02:39.141Z,4.40
2023-01-03T15:05:17.725Z,6.00
2023-01-03T15:07:46.105Z,5.45
2023-01-03T15:10:20.320Z,10.40
2023-01-03T15:12:50.454Z,5.78
2023-01-03T15:15:24.140Z,5.80
2023-01-03T15:17:54.898Z,6.22
2023-01-03T15:20:25.701Z,8.88
2023-01-03T15:22:54.094Z,10.20
2023-01-03T15:25:28.076Z,7.22
2023-01-03T15:27:57.129Z,8.27
2023-01-03T15:30:27.445Z,5.72
2023-01-03T15:33:00.864Z,5.70
2023-01-03T15:35:34.449Z,9.05
2023-01-03T15:38:04.152Z,6.43
2023-01-03T15:40:33.883Z,5.63
2023-01-03T15:43:22.073Z,7.75
2023-01-03T15:45:54.039Z,5.10
2023-01-03T15:48:23.579Z,6.00
2023-01-03T15:50:52.770Z,6.88
2023-01-03T15:53:25.878Z,8.10
2023-01-03T15:55:56.856Z,6.28
2023-01-03T15:58:26.715Z,6.40
2023-01-03T16:00:55.899Z,6.40
2023-01-03T16:03:29.342Z,6.38
2023-01-03T16:05:59.740Z,7.65
2023-01-03T16:08:33.632Z,6.57
2023-01-03T16:11:04.705Z,7.38
2023-01-03T16:13:37.018Z,8.73
2023-01-03T16:16:06.838Z,7.15
2023-01-03T16:18:38.001Z,6.07
2023-01-03T16:21:06.845Z,9.88
2023-01-03T16:23:35.944Z,6.90
2023-01-03T16:26:05.768Z,7.55
2023-01-03T16:28:34.104Z,7.68
2023-01-03T16:31:03.574Z,10.48
2023-01-03T16:33:33.953Z,8.43
2023-01-03T16:36:02.836Z,6.93
2023-01-03T16:38:31.544Z,8.23
2023-01-03T16:41:00.149Z,7.03
2023-01-03T16:43:29.963Z,8.25
2023-01-03T16:46:00.218Z,7.75
2023-01-03T16:48:35.508Z,6.47
2023-01-03T16:51:03.808Z,7.32
2023-01-03T16:53:34.861Z,7.97
2023-01-03T16:56:03.558Z,6.45
2023-01-03T16:58:33.290Z,7.90
2023-01-03T17:01:01.751Z,6.68
2023-01-03T17:03:35.400Z,6.45
2023-01-03T17:06:18.168Z,7.05
2023-01-03T17:08:46.637Z,6.47
2023-01-03T17:11:17.311Z,5.97
2023-01-03T17:13:48.302Z,8.23
2023-01-03T17:16:17.794Z,10.00
2023-01-03T17:18:46.255Z,6.88
2023-01-03T17:21:20.328Z,8.45
2023-01-03T17:23:48.922Z,9.02
2023-01-03T17:26:18.633Z,12.20
2023-01-03T17:28:48.788Z,10.35
2023-01-03T17:31:18.827Z,9.20
2023-01-03T17:33:47.225Z,8.60
2023-01-03T17:36:16.126Z,9.32
2023-01-03T17:38:45.052Z,10.35
2023-01-03T17:41:17.358Z,12.07
2023-01-03T17:43:46.099Z,11.90
2023-01-03T17:46:38.269Z,9.25
2023-01-03T17:49:27.373Z,10.57
2023-01-03T17:51:56.857Z,8.48
2023-01-03T17:54:26.397Z,9.85
2023-01-03T18:06:35.420Z,12.43
2023-01-03T18:09:07.019Z,11.45
2023-01-03T18:11:36.171Z,11.57
2023-01-03T18:14:04.692Z,11.05
2023-01-03T18:16:33.395Z,11.13
2023-01-03T18:19:01.989Z,10.02
2023-01-03T18:21:30.643Z,9.43
2023-01-03T18:24:00.402Z,9.80
2023-01-03T18:26:35.720Z,12.32
2023-01-03T18:29:04.179Z,14.13
2023-01-03T18:31:33.259Z,9.10
2023-01-03T18:34:04.100Z,12.55
2023-01-03T18:36:34.527Z,10.63
2023-01-03T18:39:05.817Z,14.38
2023-01-03T18:41:38.158Z,11.43
2023-01-03T18:44:07.123Z,11.13
2023-01-03T18:46:35.546Z,10.18
2023-01-03T18:49:04.436Z,10.70
2023-01-03T18:51:33.253Z,10.48
2023-01-03T18:54:02.079Z,12.52
2023-01-03T18:59:23.606Z,10.43
2023-01-03T19:01:52.431Z,11.52
2023-01-03T19:04:34.141Z,14.50
2023-01-03T19:07:34.496Z,11.52
2023-01-03T19:10:06.126Z,10.77
2023-01-03T19:12:48.471Z,12.05
2023-01-03T19:18:50.820Z,11.23
2023-01-03T19:21:20.842Z,15.10
2023-01-03T19:23:57.547Z,11.95
2023-01-03T19:26:39.089Z,12.57
2023-01-03T19:29:09.213Z,41.45
2023-01-03T19:31:41.916Z,22.13
2023-01-03T19:34:22.637Z,22.40
2023-01-03T19:37:07.165Z,15.60
2023-01-03T19:39:50.726Z,17.90
2023-01-03T19:42:51.334Z,17.10
2023-01-03T19:45:23.650Z,16.58
2023-01-03T19:47:52.738Z,14.10
2023-01-03T19:51:00.207Z,12.38
2023-01-03T19:54:15.688Z,12.45
2023-01-03T19:57:17.169Z,11.85
2023-01-03T20:00:18.320Z,11.10
2023-01-03T20:02:49.103Z,11.90
2023-01-03T20:05:35.460Z,14.57
2023-01-03T20:08:11.561Z,11.73
2023-01-03T20:14:17.250Z,16.35
2023-01-03T20:16:46.822Z,10.82
2023-01-03T20:19:17.938Z,11.20
2023-01-03T20:21:54.309Z,11.10
2023-01-03T20:24:25.196Z,11.68
2023-01-03T20:26:58.160Z,10.90
2023-01-03T20:29:26.623Z,9.45
2023-01-03T20:31:56.968Z,12.75
2023-01-03T20:34:25.355Z,15.27
2023-01-03T20:36:55.481Z,12.40
2023-01-03T20:39:26.074Z,15.65
2023-01-03T20:41:58.594Z,10.70
2023-01-03T20:44:32.862Z,13.60
2023-01-03T20:47:01.501Z,11.75
2023-01-03T20:49:30.040Z,9.43
2023-01-03T20:51:58.349Z,12.02
2023-01-03T20:54:26.648Z,10.70
2023-01-03T20:56:54.914Z,10.45
2023-01-03T20:59:24.269Z,10.13
2023-01-03T21:01:54.075Z,8.25
2023-01-03T21:04:22.522Z,10.32
2023-01-03T21:06:52.597Z,9.45
2023-01-03T21:09:19.953Z,10.60
2023-01-03T21:11:48.290Z,8.13
2023-01-03T21:14:16.683Z,9.20
2023-01-03T21:16:46.262Z,7.65
2023-01-03T21:19:17.208Z,6.95
2023-01-03T21:21:46.388Z,7.47
2023-01-03T21:24:15.626Z,7.43
2023-01-03T21:26:44.042Z,7.90
2023-01-03T21:29:13.298Z,8.35
2023-01-03T21:31:43.000Z,8.82
2023-01-03T21:34:17.236Z,8.38
2023-01-03T21:36:45.613Z,8.52
2023-01-03T21:39:14.067Z,7.60
2023-01-03T21:41:56.559Z,8.65
2023-01-03T21:44:24.936Z,9.13
2023-01-03T21:46:53.366Z,8.32
2023-01-03T21:49:23.082Z,7.05
2023-01-03T21:51:51.471Z,8.43
2023-01-03T21:54:19.776Z,6.80
2023-01-03T21:56:48.180Z,8.10
2023-01-03T21:59:17.092Z,8.07
2023-01-03T22:02:03.710Z,12.07
2023-01-03T22:04:41.398Z,9.20
2023-01-03T22:07:09.951Z,11.48
2023-01-03T22:09:55.919Z,9.85
2023-01-03T22:12:24.379Z,9.63
2023-01-03T22:14:52.819Z,7.72
2023-01-03T22:17:21.266Z,7.40
2023-01-03T22:19:51.215Z,9.80
2023-01-03T22:22:20.114Z,7.88
2023-01-03T22:24:48.727Z,9.90
2023-01-03T22:27:18.176Z,11.00
2023-01-03T22:29:46.988Z,9.75
2023-01-03T22:32:15.394Z,8.95
2023-01-03T22:34:43.997Z,11.93
2023-01-03T22:37:14.026Z,6.82
2023-01-03T22:39:42.419Z,8.65
2023-01-03T22:42:16.008Z,7.18
2023-01-03T22:44:47.749Z,9.43
2023-01-03T22:47:16.063Z,9.95
2023-01-03T22:49:44.385Z,8.90
2023-01-03T22:52:14.045Z,6.80
2023-01-03T22:54:42.502Z,7.25
2023-01-03T22:57:11.916Z,10.70
2023-01-03T22:59:40.259Z,11.32
2023-01-03T23:02:13.706Z,8.95
2023-01-03T23:04:48.251Z,8.15
2023-01-03T23:07:17.918Z,7.38
2023-01-03T23:09:46.167Z,10.15
2023-01-03T23:12:31.934Z,8.07
2023-01-03T23:15:00.266Z,8.45
2023-01-03T23:17:46.185Z,15.35
2023-01-03T23:20:14.597Z,11.00
2023-01-03T23:22:44.398Z,9.73
2023-01-03T23:25:13.036Z,10.77
2023-01-03T23:27:41.382Z,7.97
2023-01-03T23:30:10.469Z,13.30
2023-01-03T23:32:38.818Z,9.43
2023-01-03T23:35:07.490Z,9.48
2023-01-03T23:37:35.876Z,12.75
2023-01-03T23:40:05.752Z,11.95
2023-01-03T23:42:34.119Z,9.38
2023-01-03T23:45:02.420Z,9.43
2023-01-03T23:47:30.770Z,8.98
2023-01-03T23:49:59.180Z,13.18
2023-01-03T23:52:27.570Z,8.40
2023-01-03T23:55:00.752Z,11.13
2023-01-03T23:57:33.419Z,8.32
